Wetterdaten: Woche 03.07.23 - 09.07.23 (KW27)
Datum Zeit Temp. Aussen Temp. o. S. Temp +5cm Feuchte Auss Luftdruck Regen Sonnenschein Regendauer Solar Windben Empfang
03.07.2023 00:00 17,0 C 16,0 C 12,9 C 67 % 1011,5 hPa 0,0 l/m 0,00 h 0,00 h 0 W/m 13,1 km/h (3 Bft) 97,80 %
03.07.2023 01:00 15,8 C 14,8 C 11,9 C 70 % 1011,3 hPa 0,0 l/m 0,00 h 0,00 h 0 W/m 8,6 km/h (2 Bft) 96,76 %
03.07.2023 02:00 15,0 C 14,0 C 11,1 C 73 % 1011,2 hPa 0,0 l/m 0,00 h 0,00 h 0 W/m 9,2 km/h (2 Bft) 98,02 %
03.07.2023 03:00 14,6 C 13,9 C 11,0 C 76 % 1011,0 hPa 0,0 l/m 0,00 h 0,00 h 0 W/m 11,7 km/h (2 Bft) 98,50 %
03.07.2023 04:00 14,3 C 13,9 C 10,6 C 78 % 1010,9 hPa 0,0 l/m 0,00 h 0,00 h 0 W/m 16,2 km/h (3 Bft) 96,55 %
03.07.2023 05:00 14,4 C 13,9 C 10,6 C 81 % 1010,7 hPa 0,0 l/m 0,00 h 0,00 h 10 W/m 13,0 km/h (3 Bft) 97,52 %
03.07.2023 06:00 14,6 C 14,0 C 10,9 C 83 % 1010,7 hPa 0,0 l/m 0,00 h 0,00 h 38 W/m 14,9 km/h (3 Bft) 97,93 %
03.07.2023 07:00 15,0 C 14,5 C 11,3 C 84 % 1011,0 hPa 0,0 l/m 0,00 h 0,00 h 72 W/m 16,2 km/h (3 Bft) 98,01 %
03.07.2023 08:00 16,1 C 18,0 C 13,1 C 81 % 1011,3 hPa 0,0 l/m 0,67 h 0,00 h 307 W/m 16,5 km/h (3 Bft) 96,73 %
03.07.2023 09:00 17,9 C 20,8 C 16,3 C 74 % 1011,4 hPa 0,0 l/m 0,90 h 0,00 h 536 W/m 19,7 km/h (3 Bft) 96,94 %
03.07.2023 10:00 18,8 C 19,7 C 16,9 C 66 % 1011,6 hPa 0,0 l/m 0,57 h 0,00 h 488 W/m 20,0 km/h (4 Bft) 97,08 %
03.07.2023 11:00 19,1 C 19,4 C 16,1 C 62 % 1012,0 hPa 0,0 l/m 0,50 h 0,00 h 394 W/m 21,2 km/h (4 Bft) 99,57 %
03.07.2023 12:00 19,3 C 20,5 C 18,3 C 62 % 1012,3 hPa 0,0 l/m 0,50 h 0,00 h 552 W/m 23,4 km/h (4 Bft) 95,48 %
03.07.2023 13:00 19,6 C 19,9 C 16,6 C 64 % 1012,2 hPa 0,0 l/m 0,33 h 0,00 h 289 W/m 20,8 km/h (4 Bft) 97,78 %
03.07.2023 14:00 20,1 C 22,1 C 17,0 C 65 % 1012,1 hPa 0,0 l/m 0,60 h 0,00 h 553 W/m 17,4 km/h (3 Bft) 97,44 %
03.07.2023 15:00 21,8 C 23,4 C 18,0 C 56 % 1011,8 hPa 0,0 l/m 0,52 h 0,00 h 546 W/m 17,9 km/h (3 Bft) 97,59 %
03.07.2023 16:00 22,1 C 23,3 C 18,3 C 54 % 1011,5 hPa 0,0 l/m 0,73 h 0,00 h 506 W/m 19,4 km/h (3 Bft) 96,01 %
03.07.2023 17:00 22,3 C 23,2 C 18,4 C 54 % 1011,2 hPa 0,0 l/m 0,47 h 0,00 h 378 W/m 18,4 km/h (3 Bft) 96,64 %
03.07.2023 18:00 21,9 C 22,1 C 18,0 C 55 % 1011,1 hPa 0,0 l/m 0,27 h 0,00 h 206 W/m 19,2 km/h (3 Bft) 97,57 %
03.07.2023 19:00 21,4 C 21,4 C 17,2 C 56 % 1010,9 hPa 0,0 l/m 0,63 h 0,00 h 183 W/m 17,1 km/h (3 Bft) 98,57 %
03.07.2023 20:00 20,9 C 20,2 C 16,8 C 58 % 1010,7 hPa 0,0 l/m 0,03 h 0,00 h 59 W/m 14,0 km/h (3 Bft) 95,58 %
03.07.2023 21:00 20,3 C 19,4 C 16,0 C 60 % 1010,7 hPa 0,0 l/m 0,00 h 0,00 h 14 W/m 12,7 km/h (3 Bft) 99,44 %
03.07.2023 22:00 19,2 C 18,3 C 15,1 C 61 % 1011,3 hPa 0,0 l/m 0,00 h 0,00 h 0 W/m 19,6 km/h (3 Bft) 96,52 %
03.07.2023 23:00 18,3 C 17,5 C 14,2 C 63 % 1011,6 hPa 0,0 l/m 0,00 h 0,00 h 0 W/m 18,7 km/h (3 Bft) 97,46 %
04.07.2023 00:00 17,9 C 17,1 C 13,8 C 66 % 1011,6 hPa 0,0 l/m 0,00 h 0,00 h 0 W/m 15,4 km/h (3 Bft) 97,41 %
04.07.2023 01:00 17,3 C 16,4 C 13,1 C 70 % 1011,9 hPa 0,0 l/m 0,00 h 0,00 h 0 W/m 19,8 km/h (4 Bft) 97,35 %
04.07.2023 02:00 16,5 C 15,5 C 12,4 C 74 % 1012,1 hPa 0,0 l/m 0,00 h 0,00 h 0 W/m 12,3 km/h (3 Bft) 96,78 %
04.07.2023 03:00 15,7 C 14,8 C 11,7 C 78 % 1012,2 hPa 0,0 l/m 0,00 h 0,00 h 0 W/m 13,2 km/h (3 Bft) 99,30 %
04.07.2023 04:00 15,2 C 14,3 C 11,3 C 81 % 1012,2 hPa 0,0 l/m 0,00 h 0,00 h 0 W/m 12,7 km/h (3 Bft) 94,74 %
04.07.2023 05:00 14,8 C 13,9 C 11,1 C 84 % 1012,2 hPa 0,0 l/m 0,00 h 0,00 h 10 W/m 16,1 km/h (3 Bft) 97,30 %
04.07.2023 06:00 14,7 C 14,1 C 11,0 C 86 % 1012,6 hPa 0,0 l/m 0,00 h 0,00 h 39 W/m 14,2 km/h (3 Bft) 98,90 %
04.07.2023 07:00 15,4 C 15,1 C 11,9 C 85 % 1012,9 hPa 0,0 l/m 0,10 h 0,00 h 95 W/m 13,2 km/h (3 Bft) 96,11 %
04.07.2023 08:00 16,3 C 17,8 C 13,2 C 82 % 1013,2 hPa 0,0 l/m 0,77 h 0,00 h 295 W/m 20,3 km/h (4 Bft) 98,42 %
04.07.2023 09:00 17,7 C 19,9 C 15,8 C 74 % 1013,6 hPa 0,0 l/m 0,70 h 0,00 h 409 W/m 19,3 km/h (3 Bft) 98,79 %
04.07.2023 10:00 18,9 C 20,6 C 18,4 C 67 % 1013,7 hPa 0,0 l/m 0,93 h 0,00 h 618 W/m 22,0 km/h (4 Bft) 97,52 %
04.07.2023 11:00 20,3 C 22,3 C 19,4 C 61 % 1014,0 hPa 0,0 l/m 1,00 h 0,00 h 755 W/m 20,8 km/h (4 Bft) 97,72 %
04.07.2023 12:00 21,3 C 23,6 C 21,6 C 57 % 1014,0 hPa 0,0 l/m 1,00 h 0,00 h 750 W/m 20,6 km/h (4 Bft) 95,21 %
04.07.2023 13:00 22,1 C 24,4 C 21,0 C 57 % 1013,9 hPa 0,0 l/m 0,83 h 0,00 h 664 W/m 24,0 km/h (4 Bft) 98,14 %
04.07.2023 14:00 22,7 C 24,2 C 19,9 C 56 % 1013,8 hPa 0,0 l/m 0,57 h 0,00 h 583 W/m 23,4 km/h (4 Bft) 99,01 %
04.07.2023 15:00 23,3 C 24,8 C 19,7 C 55 % 1013,5 hPa 0,0 l/m 0,77 h 0,00 h 558 W/m 17,8 km/h (3 Bft) 95,44 %
04.07.2023 16:00 23,3 C 24,5 C 19,7 C 54 % 1013,3 hPa 0,0 l/m 0,90 h 0,00 h 466 W/m 16,4 km/h (3 Bft) 98,09 %
04.07.2023 17:00 23,5 C 24,3 C 19,7 C 54 % 1012,8 hPa 0,0 l/m 0,77 h 0,00 h 365 W/m 13,8 km/h (3 Bft) 97,89 %
04.07.2023 18:00 22,9 C 22,4 C 18,9 C 56 % 1012,2 hPa 0,0 l/m 0,07 h 0,00 h 141 W/m 8,3 km/h (2 Bft) 98,00 %
04.07.2023 19:00 22,8 C 22,2 C 18,4 C 58 % 1011,5 hPa 0,0 l/m 0,00 h 0,00 h 68 W/m 3,5 km/h (1 Bft) 96,88 %
04.07.2023 20:00 22,1 C 20,3 C 15,5 C 69 % 1011,2 hPa 0,4 l/m 0,00 h 0,57 h 15 W/m 0,4 km/h (0 Bft) 96,83 %
04.07.2023 21:00 19,9 C 18,3 C 14,0 C 83 % 1010,9 hPa 0,0 l/m 0,00 h 0,20 h 7 W/m 1,8 km/h (1 Bft) 98,12 %
04.07.2023 22:00 18,5 C 17,6 C 14,4 C 83 % 1010,2 hPa 0,0 l/m 0,00 h 0,03 h 0 W/m 3,8 km/h (1 Bft) 98,36 %
04.07.2023 23:00 18,0 C 17,1 C 13,9 C 84 % 1009,2 hPa 0,0 l/m 0,00 h 0,00 h 0 W/m 2,9 km/h (1 Bft) 96,33 %
05.07.2023 00:00 17,6 C 16,7 C 13,4 C 86 % 1008,2 hPa 0,0 l/m 0,00 h 0,00 h 0 W/m 2,8 km/h (1 Bft) 97,00 %
05.07.2023 01:00 17,5 C 16,5 C 12,9 C 88 % 1007,5 hPa 0,2 l/m 0,00 h 0,57 h 0 W/m 7,2 km/h (2 Bft) 97,92 %
05.07.2023 02:00 17,1 C 15,7 C 12,1 C 92 % 1006,4 hPa 1,0 l/m 0,00 h 0,57 h 0 W/m 11,0 km/h (2 Bft) 96,87 %
05.07.2023 03:00 16,9 C 16,1 C 12,2 C 95 % 1005,3 hPa 0,0 l/m 0,00 h 0,30 h 0 W/m 15,5 km/h (3 Bft) 95,45 %
05.07.2023 04:00 16,9 C 16,1 C 12,2 C 96 % 1004,9 hPa 0,4 l/m 0,00 h 0,33 h 0 W/m 20,6 km/h (4 Bft) 98,60 %
05.07.2023 05:00 15,7 C 14,9 C 9,9 C 87 % 1005,9 hPa 0,0 l/m 0,00 h 0,00 h 5 W/m 26,8 km/h (4 Bft) 97,01 %
05.07.2023 06:00 14,7 C 13,9 C 10,1 C 84 % 1006,6 hPa 0,0 l/m 0,00 h 0,00 h 20 W/m 26,4 km/h (4 Bft) 96,54 %
05.07.2023 07:00 15,1 C 14,4 C 11,1 C 79 % 1006,9 hPa 0,0 l/m 0,00 h 0,00 h 50 W/m 32,2 km/h (5 Bft) 99,57 %
05.07.2023 08:00 15,1 C 14,8 C 11,3 C 77 % 1007,3 hPa 0,2 l/m 0,00 h 0,00 h 130 W/m 37,7 km/h (5 Bft) 95,41 %
05.07.2023 09:00 15,3 C 15,0 C 11,6 C 77 % 1008,0 hPa 0,0 l/m 0,03 h 0,00 h 141 W/m 35,0 km/h (5 Bft) 98,58 %
05.07.2023 10:00 16,3 C 16,2 C 12,8 C 73 % 1008,7 hPa 0,0 l/m 0,10 h 0,00 h 212 W/m 31,3 km/h (5 Bft) 98,44 %
05.07.2023 11:00 17,3 C 17,4 C 13,8 C 69 % 1009,3 hPa 0,0 l/m 0,10 h 0,00 h 300 W/m 32,9 km/h (5 Bft) 96,59 %
05.07.2023 12:00 19,1 C 20,4 C 17,5 C 63 % 1010,1 hPa 0,0 l/m 0,33 h 0,00 h 486 W/m 32,2 km/h (5 Bft) 96,76 %
05.07.2023 13:00 20,3 C 22,2 C 17,9 C 57 % 1010,8 hPa 0,0 l/m 0,67 h 0,00 h 688 W/m 29,0 km/h (5 Bft) 99,05 %
05.07.2023 14:00 20,5 C 22,0 C 17,0 C 58 % 1011,3 hPa 0,0 l/m 0,47 h 0,00 h 556 W/m 28,0 km/h (4 Bft) 96,87 %
05.07.2023 15:00 19,3 C 20,1 C 15,1 C 72 % 1012,1 hPa 0,0 l/m 0,48 h 0,13 h 534 W/m 27,8 km/h (4 Bft) 97,57 %
05.07.2023 16:00 20,3 C 20,9 C 16,5 C 67 % 1012,3 hPa 0,0 l/m 0,27 h 0,03 h 341 W/m 25,4 km/h (4 Bft) 96,21 %
05.07.2023 17:00 19,9 C 20,3 C 16,2 C 69 % 1012,7 hPa 0,0 l/m 0,27 h 0,00 h 294 W/m 31,0 km/h (5 Bft) 99,44 %
05.07.2023 18:00 17,9 C 16,9 C 12,8 C 80 % 1013,7 hPa 0,6 l/m 0,07 h 0,47 h 86 W/m 26,1 km/h (4 Bft) 96,94 %
05.07.2023 19:00 16,8 C 17,2 C 11,3 C 86 % 1013,9 hPa 0,0 l/m 0,20 h 0,00 h 122 W/m 14,2 km/h (3 Bft) 96,99 %
05.07.2023 20:00 16,8 C 16,3 C 12,7 C 85 % 1014,2 hPa 0,0 l/m 0,00 h 0,00 h 47 W/m 8,8 km/h (2 Bft) 98,58 %
05.07.2023 21:00 16,9 C 16,1 C 12,8 C 85 % 1014,9 hPa 0,0 l/m 0,07 h 0,03 h 17 W/m 5,8 km/h (2 Bft) 97,93 %
05.07.2023 22:00 16,3 C 15,4 C 12,2 C 87 % 1015,6 hPa 0,0 l/m 0,00 h 0,00 h 0 W/m 6,5 km/h (2 Bft) 95,96 %
05.07.2023 23:00 15,0 C 13,8 C 10,9 C 88 % 1015,9 hPa 0,0 l/m 0,00 h 0,00 h 0 W/m 5,0 km/h (1 Bft) 98,40 %
06.07.2023 00:00 14,1 C 13,1 C 10,3 C 90 % 1016,3 hPa 0,0 l/m 0,00 h 0,00 h 0 W/m 6,2 km/h (2 Bft) 97,11 %
06.07.2023 01:00 13,6 C 12,8 C 10,0 C 91 % 1016,6 hPa 0,0 l/m 0,00 h 0,00 h 0 W/m 5,0 km/h (1 Bft) 94,67 %
06.07.2023 02:00 13,2 C 12,3 C 9,5 C 92 % 1016,7 hPa 0,0 l/m 0,00 h 0,00 h 0 W/m 2,2 km/h (1 Bft) 97,20 %
06.07.2023 03:00 12,9 C 12,2 C 9,4 C 93 % 1016,7 hPa 0,0 l/m 0,00 h 0,00 h 0 W/m 5,8 km/h (2 Bft) 95,97 %
06.07.2023 04:00 12,5 C 11,9 C 9,1 C 92 % 1016,7 hPa 0,0 l/m 0,00 h 0,00 h 0 W/m 9,6 km/h (2 Bft) 98,37 %
06.07.2023 05:00 12,1 C 11,7 C 8,9 C 92 % 1016,9 hPa 0,0 l/m 0,00 h 0,00 h 8 W/m 9,1 km/h (2 Bft) 95,33 %
06.07.2023 06:00 12,2 C 11,9 C 9,1 C 91 % 1017,2 hPa 0,0 l/m 0,00 h 0,00 h 28 W/m 5,8 km/h (1 Bft) 98,13 %
06.07.2023 07:00 13,2 C 13,2 C 9,9 C 89 % 1017,5 hPa 0,0 l/m 0,10 h 0,00 h 83 W/m 8,9 km/h (2 Bft) 99,04 %
06.07.2023 08:00 15,1 C 18,4 C 12,4 C 85 % 1017,9 hPa 0,0 l/m 1,00 h 0,00 h 363 W/m 11,1 km/h (2 Bft) 93,95 %
06.07.2023 09:00 16,9 C 21,4 C 16,3 C 82 % 1018,2 hPa 0,0 l/m 0,90 h 0,00 h 531 W/m 10,6 km/h (2 Bft) 98,08 %
06.07.2023 10:00 18,2 C 20,4 C 18,2 C 77 % 1018,4 hPa 0,0 l/m 0,63 h 0,00 h 504 W/m 11,8 km/h (2 Bft) 96,59 %
06.07.2023 11:00 20,0 C 22,9 C 19,9 C 69 % 1018,6 hPa 0,0 l/m 0,90 h 0,00 h 758 W/m 13,7 km/h (3 Bft) 98,98 %
06.07.2023 12:00 21,5 C 25,1 C 22,9 C 62 % 1018,6 hPa 0,0 l/m 0,97 h 0,00 h 834 W/m 14,2 km/h (3 Bft) 98,25 %
06.07.2023 13:00 22,0 C 24,6 C 20,5 C 59 % 1018,7 hPa 0,0 l/m 0,57 h 0,00 h 612 W/m 11,2 km/h (2 Bft) 96,24 %
06.07.2023 14:00 22,6 C 25,5 C 19,6 C 57 % 1018,7 hPa 0,0 l/m 0,67 h 0,00 h 677 W/m 11,9 km/h (2 Bft) 97,72 %
06.07.2023 15:00 23,2 C 25,6 C 19,6 C 55 % 1018,6 hPa 0,0 l/m 0,50 h 0,00 h 503 W/m 12,6 km/h (3 Bft) 98,44 %
06.07.2023 16:00 24,0 C 27,5 C 20,1 C 51 % 1018,4 hPa 0,0 l/m 0,80 h 0,00 h 693 W/m 12,0 km/h (2 Bft) 97,16 %
06.07.2023 17:00 24,3 C 27,9 C 20,5 C 50 % 1018,3 hPa 0,0 l/m 0,77 h 0,00 h 526 W/m 11,6 km/h (2 Bft) 98,07 %
06.07.2023 18:00 24,3 C 29,0 C 20,8 C 50 % 1018,1 hPa 0,0 l/m 1,00 h 0,00 h 472 W/m 10,6 km/h (2 Bft) 96,56 %
06.07.2023 19:00 23,7 C 25,5 C 19,6 C 50 % 1018,2 hPa 0,0 l/m 0,80 h 0,00 h 222 W/m 6,7 km/h (2 Bft) 99,17 %
06.07.2023 20:00 22,6 C 21,4 C 17,6 C 55 % 1018,4 hPa 0,0 l/m 0,00 h 0,00 h 41 W/m 2,6 km/h (1 Bft) 95,40 %
06.07.2023 21:00 20,9 C 18,8 C 15,5 C 64 % 1018,6 hPa 0,0 l/m 0,00 h 0,00 h 15 W/m 0,4 km/h (0 Bft) 98,94 %
06.07.2023 22:00 18,5 C 16,4 C 13,5 C 73 % 1019,1 hPa 0,0 l/m 0,00 h 0,00 h 0 W/m 0,0 km/h (0 Bft) 97,52 %
06.07.2023 23:00 16,6 C 15,0 C 12,4 C 80 % 1019,5 hPa 0,0 l/m 0,00 h 0,00 h 0 W/m 0,0 km/h (0 Bft) 96,36 %
07.07.2023 00:00 15,6 C 14,1 C 11,3 C 83 % 1019,8 hPa 0,0 l/m 0,00 h 0,00 h 0 W/m 0,0 km/h (0 Bft) 96,10 %
07.07.2023 01:00 14,7 C 13,4 C 10,6 C 86 % 1019,9 hPa 0,0 l/m 0,00 h 0,00 h 0 W/m 0,0 km/h (0 Bft) 97,52 %
07.07.2023 02:00 14,1 C 12,6 C 10,0 C 88 % 1019,7 hPa 0,0 l/m 0,00 h 0,00 h 0 W/m 0,0 km/h (0 Bft) 98,94 %
07.07.2023 03:00 13,5 C 12,2 C 9,4 C 90 % 1019,8 hPa 0,0 l/m 0,00 h 0,00 h 0 W/m 0,0 km/h (0 Bft) 97,60 %
07.07.2023 04:00 13,1 C 12,2 C 9,2 C 91 % 1019,8 hPa 0,0 l/m 0,00 h 0,00 h 0 W/m 0,3 km/h (0 Bft) 94,17 %
07.07.2023 05:00 12,7 C 11,9 C 9,1 C 91 % 1020,0 hPa 0,0 l/m 0,00 h 0,00 h 7 W/m 0,3 km/h (0 Bft) 98,41 %
07.07.2023 06:00 12,8 C 12,4 C 9,3 C 92 % 1020,2 hPa 0,0 l/m 0,00 h 0,00 h 17 W/m 0,7 km/h (0 Bft) 98,24 %
07.07.2023 07:00 13,8 C 14,4 C 11,1 C 92 % 1020,2 hPa 0,0 l/m 0,13 h 0,00 h 68 W/m 1,8 km/h (1 Bft) 96,80 %
07.07.2023 08:00 17,5 C 22,1 C 14,7 C 80 % 1020,4 hPa 0,0 l/m 1,00 h 0,00 h 384 W/m 7,3 km/h (2 Bft) 96,55 %
07.07.2023 09:00 21,5 C 27,6 C 20,5 C 65 % 1020,6 hPa 0,0 l/m 1,00 h 0,00 h 560 W/m 7,1 km/h (2 Bft) 98,66 %
07.07.2023 10:00 23,7 C 26,9 C 23,8 C 56 % 1020,7 hPa 0,0 l/m 1,00 h 0,00 h 714 W/m 8,7 km/h (2 Bft) 95,64 %
07.07.2023 11:00 25,8 C 29,3 C 25,3 C 50 % 1020,5 hPa 0,0 l/m 1,00 h 0,00 h 831 W/m 6,9 km/h (2 Bft) 97,58 %
07.07.2023 12:00 28,2 C 32,6 C 29,9 C 43 % 1020,3 hPa 0,0 l/m 1,00 h 0,00 h 908 W/m 10,8 km/h (2 Bft) 98,53 %
07.07.2023 13:00 29,6 C 34,8 C 27,3 C 39 % 1019,9 hPa 0,0 l/m 1,00 h 0,00 h 944 W/m 9,7 km/h (2 Bft) 96,14 %
07.07.2023 14:00 30,3 C 36,1 C 26,2 C 37 % 1019,5 hPa 0,0 l/m 1,00 h 0,00 h 933 W/m 11,2 km/h (2 Bft) 98,73 %
07.07.2023 15:00 31,0 C 35,9 C 25,3 C 35 % 1019,1 hPa 0,0 l/m 1,00 h 0,00 h 871 W/m 9,0 km/h (2 Bft) 97,72 %
07.07.2023 16:00 31,5 C 36,1 C 26,2 C 35 % 1018,6 hPa 0,0 l/m 1,00 h 0,00 h 767 W/m 7,8 km/h (2 Bft) 96,75 %
07.07.2023 17:00 31,8 C 36,0 C 26,9 C 34 % 1018,4 hPa 0,0 l/m 1,00 h 0,00 h 622 W/m 9,0 km/h (2 Bft) 98,58 %
07.07.2023 18:00 32,3 C 37,8 C 28,1 C 33 % 1017,8 hPa 0,0 l/m 1,00 h 0,00 h 452 W/m 8,6 km/h (2 Bft) 97,14 %
07.07.2023 19:00 31,2 C 33,4 C 25,1 C 37 % 1017,4 hPa 0,0 l/m 0,93 h 0,00 h 279 W/m 8,8 km/h (2 Bft) 96,14 %
07.07.2023 20:00 27,9 C 26,3 C 21,2 C 46 % 1017,3 hPa 0,0 l/m 0,00 h 0,00 h 50 W/m 4,9 km/h (1 Bft) 98,77 %
07.07.2023 21:00 25,6 C 23,9 C 19,6 C 50 % 1017,3 hPa 0,0 l/m 0,00 h 0,00 h 15 W/m 1,7 km/h (1 Bft) 97,61 %
07.07.2023 22:00 23,3 C 21,9 C 18,2 C 57 % 1017,5 hPa 0,0 l/m 0,00 h 0,00 h 0 W/m 3,7 km/h (1 Bft) 97,74 %
07.07.2023 23:00 22,0 C 21,0 C 17,4 C 64 % 1017,5 hPa 0,0 l/m 0,00 h 0,00 h 0 W/m 3,2 km/h (1 Bft) 97,54 %
08.07.2023 00:00 21,2 C 20,1 C 16,7 C 67 % 1017,4 hPa 0,0 l/m 0,00 h 0,00 h 0 W/m 3,0 km/h (1 Bft) 97,02 %
08.07.2023 01:00 20,8 C 20,0 C 16,7 C 68 % 1017,3 hPa 0,0 l/m 0,00 h 0,00 h 0 W/m 2,1 km/h (1 Bft) 97,89 %
08.07.2023 02:00 20,6 C 19,3 C 15,9 C 72 % 1017,0 hPa 0,0 l/m 0,00 h 0,00 h 0 W/m 0,0 km/h (0 Bft) 96,86 %
08.07.2023 03:00 20,2 C 19,4 C 15,9 C 73 % 1016,7 hPa 0,0 l/m 0,00 h 0,00 h 0 W/m 0,0 km/h (0 Bft) 98,39 %
08.07.2023 04:00 20,0 C 19,0 C 15,7 C 74 % 1016,3 hPa 0,0 l/m 0,00 h 0,00 h 0 W/m 1,5 km/h (1 Bft) 96,71 %
08.07.2023 05:00 19,5 C 18,4 C 15,0 C 76 % 1016,3 hPa 0,0 l/m 0,00 h 0,00 h 6 W/m 1,6 km/h (1 Bft) 98,51 %
08.07.2023 06:00 18,9 C 17,9 C 14,4 C 78 % 1016,5 hPa 0,0 l/m 0,00 h 0,00 h 23 W/m 1,0 km/h (0 Bft) 96,76 %
08.07.2023 07:00 19,2 C 19,4 C 15,6 C 81 % 1016,5 hPa 0,0 l/m 0,13 h 0,00 h 87 W/m 2,8 km/h (1 Bft) 98,48 %
08.07.2023 08:00 22,8 C 26,5 C 19,5 C 65 % 1016,5 hPa 0,0 l/m 1,00 h 0,00 h 356 W/m 7,0 km/h (2 Bft) 96,97 %
08.07.2023 09:00 26,7 C 31,5 C 24,4 C 52 % 1016,4 hPa 0,0 l/m 0,97 h 0,00 h 513 W/m 8,4 km/h (2 Bft) 98,22 %
08.07.2023 10:00 28,4 C 30,7 C 26,9 C 48 % 1016,6 hPa 0,0 l/m 1,00 h 0,00 h 675 W/m 12,5 km/h (3 Bft) 96,16 %
08.07.2023 11:00 30,4 C 32,9 C 28,4 C 44 % 1016,7 hPa 0,0 l/m 1,00 h 0,00 h 798 W/m 10,4 km/h (2 Bft) 96,20 %
08.07.2023 12:00 32,2 C 35,5 C 32,5 C 42 % 1016,5 hPa 0,0 l/m 1,00 h 0,00 h 875 W/m 13,0 km/h (3 Bft) 98,09 %
08.07.2023 13:00 33,6 C 38,3 C 31,2 C 40 % 1016,2 hPa 0,0 l/m 1,00 h 0,00 h 913 W/m 10,5 km/h (2 Bft) 98,25 %
08.07.2023 14:00 35,0 C 40,4 C 29,9 C 38 % 1015,9 hPa 0,0 l/m 0,95 h 0,00 h 902 W/m 9,1 km/h (2 Bft) 95,62 %
08.07.2023 15:00 35,4 C 39,9 C 29,3 C 37 % 1015,7 hPa 0,0 l/m 1,00 h 0,00 h 843 W/m 9,2 km/h (2 Bft) 98,01 %
08.07.2023 16:00 35,7 C 38,7 C 29,6 C 36 % 1015,6 hPa 0,0 l/m 1,00 h 0,00 h 666 W/m 8,9 km/h (2 Bft) 97,22 %
08.07.2023 17:00 34,7 C 35,8 C 28,8 C 39 % 1015,7 hPa 0,0 l/m 0,77 h 0,00 h 420 W/m 6,4 km/h (2 Bft) 97,45 %
08.07.2023 18:00 34,8 C 36,0 C 28,8 C 40 % 1015,6 hPa 0,0 l/m 0,90 h 0,00 h 311 W/m 4,4 km/h (1 Bft) 98,33 %
08.07.2023 19:00 34,7 C 35,6 C 28,1 C 41 % 1015,5 hPa 0,0 l/m 1,00 h 0,00 h 270 W/m 3,5 km/h (1 Bft) 97,51 %
08.07.2023 20:00 33,4 C 30,8 C 25,6 C 49 % 1015,8 hPa 0,0 l/m 0,40 h 0,00 h 80 W/m 0,7 km/h (0 Bft) 94,50 %
08.07.2023 21:00 31,1 C 29,1 C 24,9 C 50 % 1016,6 hPa 0,0 l/m 0,03 h 0,00 h 17 W/m 7,1 km/h (2 Bft) 97,10 %
08.07.2023 22:00 28,5 C 26,5 C 22,9 C 56 % 1017,0 hPa 0,0 l/m 0,00 h 0,00 h 0 W/m 4,5 km/h (1 Bft) 98,29 %
08.07.2023 23:00 26,5 C 24,9 C 21,7 C 61 % 1017,5 hPa 0,0 l/m 0,00 h 0,00 h 0 W/m 6,5 km/h (2 Bft) 95,57 %
09.07.2023 00:00 25,1 C 23,8 C 20,7 C 66 % 1017,8 hPa 0,0 l/m 0,00 h 0,00 h 0 W/m 7,9 km/h (2 Bft) 99,00 %
09.07.2023 01:00 24,3 C 23,0 C 19,8 C 70 % 1017,9 hPa 0,0 l/m 0,00 h 0,00 h 0 W/m 5,2 km/h (1 Bft) 96,76 %
09.07.2023 02:00 23,5 C 22,4 C 19,1 C 73 % 1017,9 hPa 0,0 l/m 0,00 h 0,00 h 0 W/m 3,1 km/h (1 Bft) 97,53 %
09.07.2023 03:00 22,9 C 21,7 C 18,4 C 74 % 1017,9 hPa 0,0 l/m 0,00 h 0,00 h 0 W/m 2,8 km/h (1 Bft) 98,13 %
09.07.2023 04:00 22,3 C 20,9 C 18,0 C 76 % 1017,9 hPa 0,0 l/m 0,00 h 0,00 h 0 W/m 3,3 km/h (1 Bft) 97,02 %
09.07.2023 05:00 21,6 C 20,3 C 17,2 C 79 % 1018,2 hPa 0,0 l/m 0,00 h 0,00 h 9 W/m 2,0 km/h (1 Bft) 96,35 %
09.07.2023 06:00 21,2 C 20,5 C 17,3 C 82 % 1018,4 hPa 0,0 l/m 0,00 h 0,00 h 31 W/m 4,4 km/h (1 Bft) 99,31 %
09.07.2023 07:00 22,0 C 21,9 C 18,4 C 81 % 1018,3 hPa 0,0 l/m 0,10 h 0,00 h 78 W/m 6,5 km/h (2 Bft) 96,58 %
09.07.2023 08:00 24,3 C 26,8 C 20,8 C 75 % 1018,4 hPa 0,0 l/m 0,97 h 0,00 h 300 W/m 7,5 km/h (2 Bft) 97,43 %
09.07.2023 09:00 27,6 C 31,5 C 25,6 C 65 % 1018,4 hPa 0,0 l/m 1,00 h 0,00 h 463 W/m 8,0 km/h (2 Bft) 97,22 %
09.07.2023 10:00 30,0 C 32,1 C 27,8 C 60 % 1018,1 hPa 0,0 l/m 1,00 h 0,00 h 615 W/m 7,8 km/h (2 Bft) 98,29 %
09.07.2023 11:00 32,5 C 34,8 C 30,3 C 53 % 1017,8 hPa 0,0 l/m 1,00 h 0,00 h 754 W/m 9,2 km/h (2 Bft) 97,58 %
09.07.2023 12:00 34,8 C 38,4 C 34,9 C 48 % 1017,5 hPa 0,0 l/m 0,98 h 0,00 h 839 W/m 9,9 km/h (2 Bft) 96,14 %
09.07.2023 13:00 36,1 C 39,5 C 32,7 C 44 % 1016,9 hPa 0,0 l/m 1,00 h 0,00 h 820 W/m 12,8 km/h (3 Bft) 97,45 %
09.07.2023 14:00 35,6 C 35,5 C 31,0 C 46 % 1016,7 hPa 0,0 l/m 0,23 h 0,00 h 329 W/m 9,1 km/h (2 Bft) 97,98 %
09.07.2023 15:00 33,3 C 30,5 C 25,7 C 54 % 1016,3 hPa 1,0 l/m 0,00 h 0,20 h 57 W/m 4,3 km/h (1 Bft) 97,49 %
09.07.2023 16:00 26,9 C 23,8 C 18,6 C 77 % 1018,1 hPa 2,6 l/m 0,00 h 0,67 h 9 W/m 18,0 km/h (3 Bft) 97,57 %
09.07.2023 17:00 22,4 C 20,6 C 17,2 C 93 % 1019,0 hPa 0,4 l/m 0,00 h 0,43 h 36 W/m 9,3 km/h (2 Bft) 98,86 %
09.07.2023 18:00 22,6 C 21,4 C 17,5 C 96 % 1018,5 hPa 0,0 l/m 0,00 h 0,00 h 70 W/m 7,5 km/h (2 Bft) 95,60 %
09.07.2023 19:00 23,0 C 23,1 C 17,9 C 95 % 1018,4 hPa 0,0 l/m 0,67 h 0,00 h 201 W/m 2,2 km/h (1 Bft) 99,53 %
09.07.2023 20:00 24,0 C 22,9 C 17,9 C 90 % 1018,0 hPa 0,0 l/m 0,23 h 0,00 h 64 W/m 2,6 km/h (1 Bft) 96,88 %
09.07.2023 21:00 23,3 C 22,1 C 18,0 C 93 % 1018,3 hPa 0,0 l/m 0,00 h 0,00 h 14 W/m 5,0 km/h (1 Bft) 96,91 %
09.07.2023 22:00 22,8 C 21,5 C 18,2 C 95 % 1018,8 hPa 0,0 l/m 0,00 h 0,00 h 0 W/m 2,7 km/h (1 Bft) 98,48 %
09.07.2023 23:00 22,3 C 21,1 C 17,8 C 95 % 1019,1 hPa 0,0 l/m 0,00 h 0,00 h 0 W/m 6,3 km/h (2 Bft) 97,48 %
Min-Datum _ 06.07.23 06.07.23 05.07.23 07.07.23 05.07.23 - - - - 04.07.23 06.07.23
_ Min-Zeit 05:44 03:28 05:48 18:32 04:14 - - - - 19:30 01:28
Minimum _ 12,0 C 11,7 C 8,9 C 31 % 1004,7 hPa - - - - 0,0 km/h (0 Bft) 28,12 %
Max-Datum _ 09.07.23 08.07.23 09.07.23 05.07.23 07.07.23 09.07.23 03.07.23 04.07.23 05.07.23 05.07.23 03.07.23
_ Max-Zeit 13:30 14:26 12:44 03:48 10:20 16:48 15:12 20:14 13:20 18:22 00:42
Maximum _ 36,3 C 41,7 C 38,3 C 96 % 1020,8 hPa 2,6 l/m 0,08 h 0,03 h 1153 W/m 77,2 km/h
SO (9 Bft)
100,00 %
Durchschnitt _ 21,3 C 21,9 C 17,6 C 68 % 1015,1 hPa #6,8 l/m #59:10 h #4:32 h 359 W/m 11,1 km/h (2 Bft) 97,39 %
© 2023 W. Hausmann